sensor_id;sensor_type;location;lat;lon;timestamp;P1;durP1;ratioP1;P2;durP2;ratioP2
33074;SDS011;19433;51.292;6.868;2023-01-04T00:01:02;9.37;;;1.80;;
33074;SDS011;19433;51.292;6.868;2023-01-04T00:03:28;3.50;;;2.37;;
33074;SDS011;19433;51.292;6.868;2023-01-04T00:05:56;4.83;;;2.90;;
33074;SDS011;19433;51.292;6.868;2023-01-04T00:08:22;4.97;;;2.50;;
33074;SDS011;19433;51.292;6.868;2023-01-04T00:10:47;2.17;;;1.70;;
33074;SDS011;19433;51.292;6.868;2023-01-04T00:13:19;3.77;;;2.07;;
33074;SDS011;19433;51.292;6.868;2023-01-04T00:15:44;3.77;;;2.30;;
33074;SDS011;19433;51.292;6.868;2023-01-04T00:18:09;3.03;;;1.80;;
33074;SDS011;19433;51.292;6.868;2023-01-04T00:20:34;3.67;;;1.83;;
33074;SDS011;19433;51.292;6.868;2023-01-04T00:22:59;5.00;;;2.27;;
33074;SDS011;19433;51.292;6.868;2023-01-04T00:25:25;4.17;;;2.13;;
33074;SDS011;19433;51.292;6.868;2023-01-04T00:27:51;3.97;;;2.10;;
33074;SDS011;19433;51.292;6.868;2023-01-04T00:30:17;5.73;;;2.47;;
33074;SDS011;19433;51.292;6.868;2023-01-04T00:32:42;2.90;;;2.27;;
33074;SDS011;19433;51.292;6.868;2023-01-04T00:35:08;4.20;;;1.70;;
33074;SDS011;19433;51.292;6.868;2023-01-04T00:37:34;4.53;;;1.53;;
33074;SDS011;19433;51.292;6.868;2023-01-04T00:39:59;4.30;;;1.63;;
33074;SDS011;19433;51.292;6.868;2023-01-04T00:42:24;2.63;;;1.83;;
33074;SDS011;19433;51.292;6.868;2023-01-04T00:44:49;3.63;;;1.93;;
33074;SDS011;19433;51.292;6.868;2023-01-04T00:47:15;8.90;;;2.10;;
33074;SDS011;19433;51.292;6.868;2023-01-04T00:49:40;2.00;;;1.60;;
33074;SDS011;19433;51.292;6.868;2023-01-04T00:52:05;4.83;;;2.10;;
33074;SDS011;19433;51.292;6.868;2023-01-04T00:54:30;5.40;;;1.90;;
33074;SDS011;19433;51.292;6.868;2023-01-04T00:56:56;7.30;;;3.77;;
33074;SDS011;19433;51.292;6.868;2023-01-04T00:59:22;8.73;;;2.30;;
33074;SDS011;19433;51.292;6.868;2023-01-04T01:01:48;3.80;;;2.87;;
33074;SDS011;19433;51.292;6.868;2023-01-04T01:04:15;3.20;;;2.17;;
33074;SDS011;19433;51.292;6.868;2023-01-04T01:06:42;3.60;;;2.33;;
33074;SDS011;19433;51.292;6.868;2023-01-04T01:09:08;2.70;;;2.50;;
33074;SDS011;19433;51.292;6.868;2023-01-04T01:11:34;3.23;;;1.90;;
33074;SDS011;19433;51.292;6.868;2023-01-04T01:14:14;3.10;;;2.60;;
33074;SDS011;19433;51.292;6.868;2023-01-04T01:16:41;5.10;;;2.30;;
33074;SDS011;19433;51.292;6.868;2023-01-04T01:19:06;5.70;;;2.47;;
33074;SDS011;19433;51.292;6.868;2023-01-04T01:21:32;6.30;;;3.20;;
33074;SDS011;19433;51.292;6.868;2023-01-04T01:50:19;4.70;;;2.80;;
33074;SDS011;19433;51.292;6.868;2023-01-04T01:59:46;6.80;;;3.10;;
33074;SDS011;19433;51.292;6.868;2023-01-04T02:02:14;5.07;;;3.00;;
33074;SDS011;19433;51.292;6.868;2023-01-04T06:31:07;4.10;;;0.90;;
33074;SDS011;19433;51.292;6.868;2023-01-04T06:33:35;0.90;;;0.77;;
33074;SDS011;19433;51.292;6.868;2023-01-04T06:36:00;1.93;;;0.80;;
33074;SDS011;19433;51.292;6.868;2023-01-04T06:38:26;0.80;;;0.80;;
33074;SDS011;19433;51.292;6.868;2023-01-04T06:41:09;0.70;;;0.70;;
33074;SDS011;19433;51.292;6.868;2023-01-04T06:47:01;0.70;;;0.70;;
33074;SDS011;19433;51.292;6.868;2023-01-04T06:55:48;1.47;;;0.60;;
33074;SDS011;19433;51.292;6.868;2023-01-04T07:01:19;1.23;;;0.60;;
33074;SDS011;19433;51.292;6.868;2023-01-04T07:03:44;0.70;;;0.70;;
33074;SDS011;19433;51.292;6.868;2023-01-04T07:06:09;0.63;;;0.63;;
33074;SDS011;19433;51.292;6.868;2023-01-04T07:08:35;1.83;;;1.07;;
33074;SDS011;19433;51.292;6.868;2023-01-04T07:11:01;0.70;;;0.60;;
33074;SDS011;19433;51.292;6.868;2023-01-04T07:19:26;1.90;;;0.73;;
33074;SDS011;19433;51.292;6.868;2023-01-04T07:37:34;0.90;;;0.60;;
33074;SDS011;19433;51.292;6.868;2023-01-04T07:39:59;0.70;;;0.70;;
33074;SDS011;19433;51.292;6.868;2023-01-04T07:42:24;1.73;;;0.80;;
33074;SDS011;19433;51.292;6.868;2023-01-04T07:44:50;2.50;;;1.30;;
33074;SDS011;19433;51.292;6.868;2023-01-04T07:47:15;0.60;;;0.60;;
33074;SDS011;19433;51.292;6.868;2023-01-04T07:49:54;2.03;;;0.73;;
33074;SDS011;19433;51.292;6.868;2023-01-04T07:52:19;3.90;;;0.93;;
33074;SDS011;19433;51.292;6.868;2023-01-04T07:54:44;0.73;;;0.60;;
33074;SDS011;19433;51.292;6.868;2023-01-04T08:13:14;0.70;;;0.63;;
33074;SDS011;19433;51.292;6.868;2023-01-04T08:19:04;1.00;;;1.00;;
33074;SDS011;19433;51.292;6.868;2023-01-04T12:18:15;1.00;;;1.00;;
33074;SDS011;19433;51.292;6.868;2023-01-04T12:20:46;2.87;;;1.43;;
33074;SDS011;19433;51.292;6.868;2023-01-04T12:23:12;1.80;;;1.20;;
33074;SDS011;19433;51.292;6.868;2023-01-04T12:25:38;1.87;;;1.20;;
33074;SDS011;19433;51.292;6.868;2023-01-04T12:36:52;1.30;;;1.20;;
33074;SDS011;19433;51.292;6.868;2023-01-04T12:39:25;1.07;;;1.07;;
33074;SDS011;19433;51.292;6.868;2023-01-04T12:54:42;1.03;;;0.93;;
33074;SDS011;19433;51.292;6.868;2023-01-04T12:57:52;0.90;;;0.70;;
33074;SDS011;19433;51.292;6.868;2023-01-04T13:20:19;0.90;;;0.90;;
33074;SDS011;19433;51.292;6.868;2023-01-04T13:22:59;0.70;;;0.70;;
33074;SDS011;19433;51.292;6.868;2023-01-04T13:36:24;0.97;;;0.97;;
33074;SDS011;19433;51.292;6.868;2023-01-04T13:41:58;0.73;;;0.73;;
33074;SDS011;19433;51.292;6.868;2023-01-04T13:44:31;1.50;;;0.90;;
33074;SDS011;19433;51.292;6.868;2023-01-04T14:00:52;0.70;;;0.70;;
33074;SDS011;19433;51.292;6.868;2023-01-04T14:10:43;0.83;;;0.73;;
33074;SDS011;19433;51.292;6.868;2023-01-04T14:16:42;0.80;;;0.80;;
33074;SDS011;19433;51.292;6.868;2023-01-04T14:22:17;1.63;;;0.80;;
33074;SDS011;19433;51.292;6.868;2023-01-04T14:24:42;0.70;;;0.70;;
33074;SDS011;19433;51.292;6.868;2023-01-04T14:30:31;0.97;;;0.80;;
33074;SDS011;19433;51.292;6.868;2023-01-04T14:46:49;0.87;;;0.87;;
33074;SDS011;19433;51.292;6.868;2023-01-04T14:49:17;1.30;;;1.20;;
33074;SDS011;19433;51.292;6.868;2023-01-04T14:54:17;0.90;;;0.90;;
33074;SDS011;19433;51.292;6.868;2023-01-04T14:56:43;1.13;;;1.10;;
33074;SDS011;19433;51.292;6.868;2023-01-04T14:59:16;1.13;;;1.07;;
33074;SDS011;19433;51.292;6.868;2023-01-04T15:01:41;0.90;;;0.90;;
33074;SDS011;19433;51.292;6.868;2023-01-04T15:04:06;1.40;;;1.10;;
33074;SDS011;19433;51.292;6.868;2023-01-04T15:06:34;1.13;;;0.90;;
33074;SDS011;19433;51.292;6.868;2023-01-04T15:09:14;0.80;;;0.80;;
33074;SDS011;19433;51.292;6.868;2023-01-04T15:11:39;1.00;;;0.90;;
33074;SDS011;19433;51.292;6.868;2023-01-04T15:14:05;1.30;;;1.20;;
33074;SDS011;19433;51.292;6.868;2023-01-04T15:16:41;3.87;;;0.97;;
33074;SDS011;19433;51.292;6.868;2023-01-04T15:19:25;1.30;;;1.03;;
33074;SDS011;19433;51.292;6.868;2023-01-04T15:54:14;1.40;;;1.30;;
33074;SDS011;19433;51.292;6.868;2023-01-04T15:56:41;1.60;;;1.50;;
33074;SDS011;19433;51.292;6.868;2023-01-04T15:59:06;1.63;;;1.40;;
33074;SDS011;19433;51.292;6.868;2023-01-04T16:01:31;2.03;;;1.70;;
33074;SDS011;19433;51.292;6.868;2023-01-04T16:03:56;1.77;;;1.40;;
33074;SDS011;19433;51.292;6.868;2023-01-04T16:06:22;2.33;;;1.37;;
33074;SDS011;19433;51.292;6.868;2023-01-04T16:08:47;3.23;;;1.50;;
33074;SDS011;19433;51.292;6.868;2023-01-04T16:11:16;3.23;;;1.60;;
33074;SDS011;19433;51.292;6.868;2023-01-04T16:13:46;5.70;;;1.87;;
33074;SDS011;19433;51.292;6.868;2023-01-04T16:16:13;3.67;;;1.73;;
33074;SDS011;19433;51.292;6.868;2023-01-04T16:18:43;4.23;;;1.70;;
33074;SDS011;19433;51.292;6.868;2023-01-04T16:21:09;8.33;;;2.13;;
33074;SDS011;19433;51.292;6.868;2023-01-04T16:23:35;5.40;;;2.07;;
33074;SDS011;19433;51.292;6.868;2023-01-04T16:26:05;5.83;;;2.00;;
33074;SDS011;19433;51.292;6.868;2023-01-04T16:28:32;6.80;;;1.90;;
33074;SDS011;19433;51.292;6.868;2023-01-04T16:30:59;7.57;;;2.40;;
33074;SDS011;19433;51.292;6.868;2023-01-04T16:33:24;3.80;;;2.27;;
33074;SDS011;19433;51.292;6.868;2023-01-04T16:35:57;4.90;;;2.13;;
33074;SDS011;19433;51.292;6.868;2023-01-04T16:38:26;7.50;;;2.30;;
33074;SDS011;19433;51.292;6.868;2023-01-04T16:40:59;4.83;;;1.83;;
33074;SDS011;19433;51.292;6.868;2023-01-04T16:43:26;3.30;;;1.87;;
33074;SDS011;19433;51.292;6.868;2023-01-04T16:48:36;2.13;;;1.90;;
33074;SDS011;19433;51.292;6.868;2023-01-04T16:51:08;2.33;;;2.23;;
33074;SDS011;19433;51.292;6.868;2023-01-04T16:53:34;2.60;;;2.07;;
33074;SDS011;19433;51.292;6.868;2023-01-04T16:56:06;5.33;;;2.33;;
33074;SDS011;19433;51.292;6.868;2023-01-04T16:58:34;2.70;;;2.50;;
33074;SDS011;19433;51.292;6.868;2023-01-04T17:01:16;3.33;;;3.13;;
33074;SDS011;19433;51.292;6.868;2023-01-04T17:03:45;3.13;;;2.93;;
33074;SDS011;19433;51.292;6.868;2023-01-04T17:06:13;2.80;;;2.60;;
33074;SDS011;19433;51.292;6.868;2023-01-04T17:08:44;3.90;;;2.80;;
33074;SDS011;19433;51.292;6.868;2023-01-04T17:11:14;3.03;;;2.67;;
33074;SDS011;19433;51.292;6.868;2023-01-04T17:13:53;3.10;;;2.73;;
33074;SDS011;19433;51.292;6.868;2023-01-04T17:16:20;3.63;;;2.20;;
33074;SDS011;19433;51.292;6.868;2023-01-04T17:18:47;2.87;;;2.67;;
33074;SDS011;19433;51.292;6.868;2023-01-04T17:21:20;2.60;;;2.50;;
33074;SDS011;19433;51.292;6.868;2023-01-04T17:23:47;2.30;;;2.10;;
33074;SDS011;19433;51.292;6.868;2023-01-04T17:26:18;7.03;;;3.30;;
33074;SDS011;19433;51.292;6.868;2023-01-04T17:28:45;2.60;;;2.30;;
33074;SDS011;19433;51.292;6.868;2023-01-04T17:31:15;6.20;;;2.57;;
33074;SDS011;19433;51.292;6.868;2023-01-04T17:33:48;9.03;;;2.97;;
33074;SDS011;19433;51.292;6.868;2023-01-04T17:36:14;3.43;;;2.20;;
33074;SDS011;19433;51.292;6.868;2023-01-04T17:38:41;5.87;;;2.43;;
33074;SDS011;19433;51.292;6.868;2023-01-04T17:41:22;2.73;;;2.20;;
33074;SDS011;19433;51.292;6.868;2023-01-04T17:43:50;5.33;;;2.43;;
33074;SDS011;19433;51.292;6.868;2023-01-04T17:46:18;7.93;;;2.57;;
33074;SDS011;19433;51.292;6.868;2023-01-04T17:48:46;4.03;;;2.30;;
33074;SDS011;19433;51.292;6.868;2023-01-04T17:51:16;6.63;;;2.63;;
33074;SDS011;19433;51.292;6.868;2023-01-04T17:53:46;6.07;;;2.83;;
33074;SDS011;19433;51.292;6.868;2023-01-04T17:56:13;11.13;;;3.40;;
33074;SDS011;19433;51.292;6.868;2023-01-04T17:58:40;9.67;;;2.90;;
33074;SDS011;19433;51.292;6.868;2023-01-04T18:01:07;6.30;;;2.87;;
33074;SDS011;19433;51.292;6.868;2023-01-04T18:03:34;12.07;;;3.77;;
33074;SDS011;19433;51.292;6.868;2023-01-04T18:08:55;10.53;;;3.63;;
33074;SDS011;19433;51.292;6.868;2023-01-04T18:11:22;7.50;;;3.10;;
33074;SDS011;19433;51.292;6.868;2023-01-04T18:13:48;7.00;;;2.67;;
33074;SDS011;19433;51.292;6.868;2023-01-04T18:16:23;10.53;;;3.80;;
33074;SDS011;19433;51.292;6.868;2023-01-04T18:18:50;10.30;;;3.70;;
33074;SDS011;19433;51.292;6.868;2023-01-04T18:21:23;9.83;;;3.40;;
33074;SDS011;19433;51.292;6.868;2023-01-04T18:23:50;11.60;;;4.13;;
33074;SDS011;19433;51.292;6.868;2023-01-04T18:28:52;15.20;;;4.20;;
33074;SDS011;19433;51.292;6.868;2023-01-04T18:31:19;12.80;;;4.57;;
33074;SDS011;19433;51.292;6.868;2023-01-04T18:33:50;15.40;;;4.67;;
33074;SDS011;19433;51.292;6.868;2023-01-04T18:36:17;14.13;;;3.97;;
33074;SDS011;19433;51.292;6.868;2023-01-04T18:38:43;12.70;;;4.30;;
33074;SDS011;19433;51.292;6.868;2023-01-04T18:41:13;9.67;;;3.77;;
33074;SDS011;19433;51.292;6.868;2023-01-04T18:43:38;14.47;;;3.90;;
33074;SDS011;19433;51.292;6.868;2023-01-04T18:46:06;13.50;;;4.53;;
33074;SDS011;19433;51.292;6.868;2023-01-04T18:48:33;17.97;;;5.00;;
33074;SDS011;19433;51.292;6.868;2023-01-04T18:51:02;14.53;;;5.13;;
33074;SDS011;19433;51.292;6.868;2023-01-04T18:53:29;13.33;;;4.57;;
33074;SDS011;19433;51.292;6.868;2023-01-04T18:55:54;13.93;;;4.30;;
33074;SDS011;19433;51.292;6.868;2023-01-04T18:58:20;14.80;;;3.97;;
33074;SDS011;19433;51.292;6.868;2023-01-04T19:00:57;15.33;;;4.67;;
33074;SDS011;19433;51.292;6.868;2023-01-04T19:03:26;14.27;;;4.67;;
33074;SDS011;19433;51.292;6.868;2023-01-04T19:05:52;16.23;;;4.93;;
33074;SDS011;19433;51.292;6.868;2023-01-04T19:08:18;17.63;;;4.37;;
33074;SDS011;19433;51.292;6.868;2023-01-04T19:10:45;15.30;;;5.27;;
33074;SDS011;19433;51.292;6.868;2023-01-04T19:13:17;13.50;;;5.03;;
33074;SDS011;19433;51.292;6.868;2023-01-04T19:15:42;16.43;;;4.40;;
33074;SDS011;19433;51.292;6.868;2023-01-04T19:18:09;13.30;;;4.70;;
33074;SDS011;19433;51.292;6.868;2023-01-04T19:20:37;13.57;;;5.30;;
33074;SDS011;19433;51.292;6.868;2023-01-04T19:23:03;17.40;;;5.90;;
33074;SDS011;19433;51.292;6.868;2023-01-04T19:25:29;14.43;;;4.80;;
33074;SDS011;19433;51.292;6.868;2023-01-04T19:27:55;11.33;;;4.07;;
33074;SDS011;19433;51.292;6.868;2023-01-04T19:30:20;11.50;;;4.10;;
33074;SDS011;19433;51.292;6.868;2023-01-04T19:32:53;17.27;;;4.63;;
33074;SDS011;19433;51.292;6.868;2023-01-04T19:35:18;20.10;;;5.83;;
33074;SDS011;19433;51.292;6.868;2023-01-04T19:37:44;18.90;;;6.17;;
33074;SDS011;19433;51.292;6.868;2023-01-04T19:40:09;20.23;;;4.60;;
33074;SDS011;19433;51.292;6.868;2023-01-04T19:42:35;14.40;;;4.83;;
33074;SDS011;19433;51.292;6.868;2023-01-04T19:45:00;20.97;;;4.83;;
33074;SDS011;19433;51.292;6.868;2023-01-04T19:47:25;10.03;;;4.60;;
33074;SDS011;19433;51.292;6.868;2023-01-04T19:49:50;16.23;;;5.40;;
33074;SDS011;19433;51.292;6.868;2023-01-04T19:52:16;15.03;;;6.33;;
33074;SDS011;19433;51.292;6.868;2023-01-04T19:54:41;14.67;;;5.20;;
33074;SDS011;19433;51.292;6.868;2023-01-04T19:57:06;14.53;;;5.73;;
33074;SDS011;19433;51.292;6.868;2023-01-04T19:59:32;13.33;;;4.47;;
33074;SDS011;19433;51.292;6.868;2023-01-04T20:01:57;14.90;;;5.77;;
33074;SDS011;19433;51.292;6.868;2023-01-04T20:04:22;17.53;;;5.60;;
33074;SDS011;19433;51.292;6.868;2023-01-04T20:06:57;14.20;;;5.07;;
33074;SDS011;19433;51.292;6.868;2023-01-04T20:09:23;17.67;;;4.87;;
33074;SDS011;19433;51.292;6.868;2023-01-04T20:11:52;17.10;;;6.00;;
33074;SDS011;19433;51.292;6.868;2023-01-04T20:14:18;15.13;;;4.77;;
33074;SDS011;19433;51.292;6.868;2023-01-04T20:16:45;20.50;;;5.47;;
33074;SDS011;19433;51.292;6.868;2023-01-04T20:19:10;16.83;;;6.10;;
33074;SDS011;19433;51.292;6.868;2023-01-04T20:21:38;14.60;;;5.90;;
33074;SDS011;19433;51.292;6.868;2023-01-04T20:24:04;16.70;;;5.43;;
33074;SDS011;19433;51.292;6.868;2023-01-04T20:26:30;20.50;;;5.17;;
33074;SDS011;19433;51.292;6.868;2023-01-04T20:28:56;15.30;;;5.10;;
33074;SDS011;19433;51.292;6.868;2023-01-04T20:31:21;19.50;;;4.93;;
33074;SDS011;19433;51.292;6.868;2023-01-04T20:33:51;11.63;;;4.23;;
33074;SDS011;19433;51.292;6.868;2023-01-04T20:36:17;15.43;;;4.97;;
33074;SDS011;19433;51.292;6.868;2023-01-04T20:38:44;14.23;;;6.83;;
33074;SDS011;19433;51.292;6.868;2023-01-04T20:41:15;22.73;;;6.27;;
33074;SDS011;19433;51.292;6.868;2023-01-04T20:43:42;12.60;;;4.70;;
33074;SDS011;19433;51.292;6.868;2023-01-04T20:46:12;17.57;;;5.53;;
33074;SDS011;19433;51.292;6.868;2023-01-04T20:48:39;12.60;;;3.80;;
33074;SDS011;19433;51.292;6.868;2023-01-04T20:51:08;14.20;;;4.67;;
33074;SDS011;19433;51.292;6.868;2023-01-04T20:53:39;13.83;;;5.33;;
33074;SDS011;19433;51.292;6.868;2023-01-04T20:56:05;22.30;;;5.50;;
33074;SDS011;19433;51.292;6.868;2023-01-04T20:58:31;21.50;;;5.60;;
33074;SDS011;19433;51.292;6.868;2023-01-04T21:00:56;13.10;;;5.47;;
33074;SDS011;19433;51.292;6.868;2023-01-04T21:03:22;12.80;;;5.00;;
33074;SDS011;19433;51.292;6.868;2023-01-04T21:05:47;21.10;;;5.50;;
33074;SDS011;19433;51.292;6.868;2023-01-04T21:08:12;12.30;;;4.43;;
33074;SDS011;19433;51.292;6.868;2023-01-04T21:10:39;16.93;;;5.63;;
33074;SDS011;19433;51.292;6.868;2023-01-04T21:13:06;17.00;;;4.57;;
33074;SDS011;19433;51.292;6.868;2023-01-04T21:15:33;25.27;;;5.13;;
33074;SDS011;19433;51.292;6.868;2023-01-04T21:18:05;16.23;;;4.67;;
33074;SDS011;19433;51.292;6.868;2023-01-04T21:20:34;22.30;;;5.67;;
33074;SDS011;19433;51.292;6.868;2023-01-04T21:23:03;16.83;;;5.00;;
33074;SDS011;19433;51.292;6.868;2023-01-04T21:25:28;15.53;;;4.93;;
33074;SDS011;19433;51.292;6.868;2023-01-04T21:27:53;19.23;;;5.20;;
33074;SDS011;19433;51.292;6.868;2023-01-04T21:30:19;13.00;;;4.27;;
33074;SDS011;19433;51.292;6.868;2023-01-04T21:32:44;16.47;;;5.27;;
33074;SDS011;19433;51.292;6.868;2023-01-04T21:35:09;14.13;;;4.70;;
33074;SDS011;19433;51.292;6.868;2023-01-04T21:37:35;20.63;;;5.30;;
33074;SDS011;19433;51.292;6.868;2023-01-04T21:40:00;22.10;;;5.87;;
33074;SDS011;19433;51.292;6.868;2023-01-04T21:42:25;14.13;;;4.70;;
33074;SDS011;19433;51.292;6.868;2023-01-04T21:44:50;19.50;;;6.30;;
33074;SDS011;19433;51.292;6.868;2023-01-04T21:47:16;17.83;;;4.83;;
33074;SDS011;19433;51.292;6.868;2023-01-04T21:49:41;15.60;;;5.13;;
33074;SDS011;19433;51.292;6.868;2023-01-04T21:52:08;13.57;;;5.70;;
33074;SDS011;19433;51.292;6.868;2023-01-04T21:54:34;17.80;;;4.60;;
33074;SDS011;19433;51.292;6.868;2023-01-04T21:57:00;15.67;;;5.10;;
33074;SDS011;19433;51.292;6.868;2023-01-04T21:59:26;20.87;;;5.17;;
33074;SDS011;19433;51.292;6.868;2023-01-04T22:01:52;15.27;;;4.83;;
33074;SDS011;19433;51.292;6.868;2023-01-04T22:04:17;14.63;;;4.50;;
33074;SDS011;19433;51.292;6.868;2023-01-04T22:06:42;22.57;;;5.20;;
33074;SDS011;19433;51.292;6.868;2023-01-04T22:09:08;17.17;;;5.70;;
33074;SDS011;19433;51.292;6.868;2023-01-04T22:11:33;17.30;;;5.23;;
33074;SDS011;19433;51.292;6.868;2023-01-04T22:13:58;15.63;;;5.37;;
33074;SDS011;19433;51.292;6.868;2023-01-04T22:16:23;15.80;;;4.93;;
33074;SDS011;19433;51.292;6.868;2023-01-04T22:18:49;19.53;;;4.93;;
33074;SDS011;19433;51.292;6.868;2023-01-04T22:21:16;13.17;;;6.07;;
33074;SDS011;19433;51.292;6.868;2023-01-04T22:23:42;15.50;;;5.33;;
33074;SDS011;19433;51.292;6.868;2023-01-04T22:26:08;16.90;;;4.90;;
33074;SDS011;19433;51.292;6.868;2023-01-04T22:28:33;14.83;;;4.70;;
33074;SDS011;19433;51.292;6.868;2023-01-04T22:31:02;9.87;;;4.97;;
33074;SDS011;19433;51.292;6.868;2023-01-04T22:33:28;14.23;;;4.80;;
33074;SDS011;19433;51.292;6.868;2023-01-04T22:35:53;15.87;;;5.90;;
33074;SDS011;19433;51.292;6.868;2023-01-04T22:38:18;11.87;;;4.83;;
33074;SDS011;19433;51.292;6.868;2023-01-04T22:40:43;21.53;;;5.33;;
33074;SDS011;19433;51.292;6.868;2023-01-04T22:43:09;15.50;;;5.00;;
33074;SDS011;19433;51.292;6.868;2023-01-04T22:45:34;20.63;;;5.90;;
33074;SDS011;19433;51.292;6.868;2023-01-04T22:47:59;13.73;;;4.90;;
33074;SDS011;19433;51.292;6.868;2023-01-04T22:50:25;16.07;;;5.30;;
33074;SDS011;19433;51.292;6.868;2023-01-04T22:52:51;14.67;;;5.17;;
33074;SDS011;19433;51.292;6.868;2023-01-04T22:55:20;20.83;;;4.53;;
33074;SDS011;19433;51.292;6.868;2023-01-04T22:57:46;14.73;;;4.93;;
33074;SDS011;19433;51.292;6.868;2023-01-04T23:00:11;14.20;;;5.07;;
33074;SDS011;19433;51.292;6.868;2023-01-04T23:02:38;17.47;;;5.30;;
33074;SDS011;19433;51.292;6.868;2023-01-04T23:05:03;19.53;;;4.53;;
33074;SDS011;19433;51.292;6.868;2023-01-04T23:07:29;14.50;;;4.93;;
33074;SDS011;19433;51.292;6.868;2023-01-04T23:09:54;16.07;;;4.70;;
33074;SDS011;19433;51.292;6.868;2023-01-04T23:12:19;15.27;;;4.90;;
33074;SDS011;19433;51.292;6.868;2023-01-04T23:14:45;15.13;;;4.40;;
33074;SDS011;19433;51.292;6.868;2023-01-04T23:17:10;13.87;;;4.20;;
33074;SDS011;19433;51.292;6.868;2023-01-04T23:19:35;17.80;;;6.17;;
33074;SDS011;19433;51.292;6.868;2023-01-04T23:22:00;10.57;;;4.50;;
33074;SDS011;19433;51.292;6.868;2023-01-04T23:24:28;13.10;;;4.47;;
33074;SDS011;19433;51.292;6.868;2023-01-04T23:26:53;13.40;;;4.53;;
33074;SDS011;19433;51.292;6.868;2023-01-04T23:29:18;24.20;;;6.53;;
33074;SDS011;19433;51.292;6.868;2023-01-04T23:31:44;10.60;;;4.60;;
33074;SDS011;19433;51.292;6.868;2023-01-04T23:34:09;14.70;;;5.03;;
33074;SDS011;19433;51.292;6.868;2023-01-04T23:36:37;14.27;;;4.27;;
33074;SDS011;19433;51.292;6.868;2023-01-04T23:39:04;23.70;;;5.60;;
33074;SDS011;19433;51.292;6.868;2023-01-04T23:41:31;17.17;;;4.73;;
33074;SDS011;19433;51.292;6.868;2023-01-04T23:44:19;14.30;;;6.00;;
33074;SDS011;19433;51.292;6.868;2023-01-04T23:46:53;17.30;;;5.37;;
33074;SDS011;19433;51.292;6.868;2023-01-04T23:49:19;12.03;;;3.90;;
33074;SDS011;19433;51.292;6.868;2023-01-04T23:51:46;13.57;;;5.67;;
33074;SDS011;19433;51.292;6.868;2023-01-04T23:54:12;13.77;;;5.10;;
33074;SDS011;19433;51.292;6.868;2023-01-04T23:56:37;12.70;;;4.80;;
33074;SDS011;19433;51.292;6.868;2023-01-04T23:59:03;14.57;;;4.23;;
